sensor_id;sensor_type;location;lat;lon;timestamp;pressure;altitude;pressure_sealevel;temperature;humidity
72124;BME280;63818;37.134;-8.548;2023-12-22T00:01:53;102418.6;;;13.6;64.9
72124;BME280;63818;37.134;-8.548;2023-12-22T00:06:46;102412.1;;;13.7;65.2
72124;BME280;63818;37.134;-8.548;2023-12-22T00:11:34;102414.3;;;13.6;65.0
72124;BME280;63818;37.134;-8.548;2023-12-22T00:16:29;102409.5;;;13.6;64.9
72124;BME280;63818;37.134;-8.548;2023-12-22T00:21:22;102400.0;;;13.6;64.7
72124;BME280;63818;37.134;-8.548;2023-12-22T00:26:10;102387.5;;;13.7;64.4
72124;BME280;63818;37.134;-8.548;2023-12-22T00:31:00;102386.5;;;13.7;64.0
72124;BME280;63818;37.134;-8.548;2023-12-22T00:35:50;102375.7;;;13.7;63.9
72124;BME280;63818;37.134;-8.548;2023-12-22T00:40:40;102373.5;;;13.7;63.9
72124;BME280;63818;37.134;-8.548;2023-12-22T00:45:28;102368.9;;;13.7;63.6
72124;BME280;63818;37.134;-8.548;2023-12-22T00:50:18;102368.0;;;13.7;63.9
72124;BME280;63818;37.134;-8.548;2023-12-22T00:55:13;102360.5;;;13.7;64.0
72124;BME280;63818;37.134;-8.548;2023-12-22T01:00:01;102369.4;;;13.7;64.0
72124;BME280;63818;37.134;-8.548;2023-12-22T01:04:52;102368.9;;;13.7;63.9
72124;BME280;63818;37.134;-8.548;2023-12-22T01:09:40;102362.2;;;13.6;63.9
72124;BME280;63818;37.134;-8.548;2023-12-22T01:14:28;102362.8;;;13.6;64.2
72124;BME280;63818;37.134;-8.548;2023-12-22T01:19:16;102357.6;;;13.6;63.8
72124;BME280;63818;37.134;-8.548;2023-12-22T01:24:08;102354.7;;;13.6;63.8
72124;BME280;63818;37.134;-8.548;2023-12-22T01:28:56;102356.3;;;13.6;63.3
72124;BME280;63818;37.134;-8.548;2023-12-22T01:33:46;102353.1;;;13.6;63.3
72124;BME280;63818;37.134;-8.548;2023-12-22T01:38:34;102353.1;;;13.6;62.9
72124;BME280;63818;37.134;-8.548;2023-12-22T01:43:25;102351.8;;;13.5;62.9
72124;BME280;63818;37.134;-8.548;2023-12-22T01:48:13;102350.2;;;13.5;62.8
72124;BME280;63818;37.134;-8.548;2023-12-22T01:53:06;102341.8;;;13.5;62.7
72124;BME280;63818;37.134;-8.548;2023-12-22T01:57:55;102340.2;;;13.5;62.4
72124;BME280;63818;37.134;-8.548;2023-12-22T02:02:47;102348.0;;;13.5;62.6
72124;BME280;63818;37.134;-8.548;2023-12-22T02:07:35;102359.7;;;13.4;63.0
72124;BME280;63818;37.134;-8.548;2023-12-22T02:12:23;102357.0;;;13.4;62.9
72124;BME280;63818;37.134;-8.548;2023-12-22T02:17:23;102356.5;;;13.4;62.9
72124;BME280;63818;37.134;-8.548;2023-12-22T02:22:14;102344.1;;;13.4;63.2
72124;BME280;63818;37.134;-8.548;2023-12-22T02:27:13;102349.8;;;13.3;62.9
72124;BME280;63818;37.134;-8.548;2023-12-22T02:32:06;102357.9;;;13.3;63.2
72124;BME280;63818;37.134;-8.548;2023-12-22T02:36:58;102364.6;;;13.4;63.0
72124;BME280;63818;37.134;-8.548;2023-12-22T02:41:47;102366.0;;;13.3;62.8
72124;BME280;63818;37.134;-8.548;2023-12-22T02:46:36;102372.0;;;13.3;63.3
72124;BME280;63818;37.134;-8.548;2023-12-22T02:51:24;102365.8;;;13.3;63.2
72124;BME280;63818;37.134;-8.548;2023-12-22T02:56:15;102366.4;;;13.2;63.4
72124;BME280;63818;37.134;-8.548;2023-12-22T03:01:04;102365.6;;;13.2;63.4
72124;BME280;63818;37.134;-8.548;2023-12-22T03:05:54;102367.7;;;13.2;63.2
72124;BME280;63818;37.134;-8.548;2023-12-22T03:15:35;102365.7;;;13.2;63.4
72124;BME280;63818;37.134;-8.548;2023-12-22T03:20:23;102377.6;;;13.1;64.2
72124;BME280;63818;37.134;-8.548;2023-12-22T03:25:13;102371.0;;;13.1;64.2
72124;BME280;63818;37.134;-8.548;2023-12-22T03:30:02;102363.8;;;13.1;63.9
72124;BME280;63818;37.134;-8.548;2023-12-22T03:34:50;102355.2;;;13.1;64.0
72124;BME280;63818;37.134;-8.548;2023-12-22T03:39:38;102348.7;;;13.1;63.7
72124;BME280;63818;37.134;-8.548;2023-12-22T03:44:29;102361.9;;;13.1;63.6
72124;BME280;63818;37.134;-8.548;2023-12-22T03:49:17;102363.3;;;13.1;64.0
72124;BME280;63818;37.134;-8.548;2023-12-22T03:54:07;102362.5;;;13.0;63.9
72124;BME280;63818;37.134;-8.548;2023-12-22T03:58:57;102358.5;;;13.0;63.9
72124;BME280;63818;37.134;-8.548;2023-12-22T04:03:45;102355.0;;;13.0;64.3
72124;BME280;63818;37.134;-8.548;2023-12-22T04:08:33;102351.8;;;12.9;64.9
72124;BME280;63818;37.134;-8.548;2023-12-22T04:13:23;102353.7;;;12.9;65.1
72124;BME280;63818;37.134;-8.548;2023-12-22T04:18:11;102357.8;;;12.9;65.5
72124;BME280;63818;37.134;-8.548;2023-12-22T04:22:59;102359.9;;;12.9;66.0
72124;BME280;63818;37.134;-8.548;2023-12-22T04:27:52;102354.8;;;12.9;66.2
72124;BME280;63818;37.134;-8.548;2023-12-22T04:32:41;102350.5;;;12.9;66.4
72124;BME280;63818;37.134;-8.548;2023-12-22T04:37:29;102346.4;;;12.9;66.5
72124;BME280;63818;37.134;-8.548;2023-12-22T04:42:17;102341.6;;;12.9;66.4
72124;BME280;63818;37.134;-8.548;2023-12-22T04:47:07;102339.2;;;12.9;66.4
72124;BME280;63818;37.134;-8.548;2023-12-22T04:51:55;102334.9;;;12.8;66.5
72124;BME280;63818;37.134;-8.548;2023-12-22T04:56:43;102336.0;;;12.8;66.7
72124;BME280;63818;37.134;-8.548;2023-12-22T05:01:30;102331.6;;;12.9;66.3
72124;BME280;63818;37.134;-8.548;2023-12-22T05:06:21;102331.4;;;12.8;66.6
72124;BME280;63818;37.134;-8.548;2023-12-22T05:11:09;102326.0;;;12.8;66.4
72124;BME280;63818;37.134;-8.548;2023-12-22T05:16:00;102328.7;;;12.8;66.6
72124;BME280;63818;37.134;-8.548;2023-12-22T05:20:48;102332.8;;;12.8;66.3
72124;BME280;63818;37.134;-8.548;2023-12-22T05:25:35;102332.3;;;12.7;66.4
72124;BME280;63818;37.134;-8.548;2023-12-22T05:30:26;102326.1;;;12.7;66.4
72124;BME280;63818;37.134;-8.548;2023-12-22T05:35:14;102323.1;;;12.7;66.8
72124;BME280;63818;37.134;-8.548;2023-12-22T05:40:04;102322.4;;;12.6;66.7
72124;BME280;63818;37.134;-8.548;2023-12-22T05:44:53;102325.3;;;12.7;66.7
72124;BME280;63818;37.134;-8.548;2023-12-22T05:49:41;102316.7;;;12.6;67.0
72124;BME280;63818;37.134;-8.548;2023-12-22T05:54:29;102321.8;;;12.6;67.1
72124;BME280;63818;37.134;-8.548;2023-12-22T05:59:17;102330.2;;;12.6;67.5
72124;BME280;63818;37.134;-8.548;2023-12-22T06:04:08;102325.1;;;12.6;67.4
72124;BME280;63818;37.134;-8.548;2023-12-22T06:08:56;102326.2;;;12.5;67.6
72124;BME280;63818;37.134;-8.548;2023-12-22T06:13:44;102320.0;;;12.5;67.6
72124;BME280;63818;37.134;-8.548;2023-12-22T06:18:32;102328.1;;;12.5;68.0
72124;BME280;63818;37.134;-8.548;2023-12-22T06:23:25;102331.4;;;12.4;68.0
72124;BME280;63818;37.134;-8.548;2023-12-22T06:28:15;102334.1;;;12.4;68.0
72124;BME280;63818;37.134;-8.548;2023-12-22T06:33:03;102328.8;;;12.3;68.3
72124;BME280;63818;37.134;-8.548;2023-12-22T06:37:51;102332.8;;;12.3;68.6
72124;BME280;63818;37.134;-8.548;2023-12-22T06:42:42;102335.8;;;12.3;68.6
72124;BME280;63818;37.134;-8.548;2023-12-22T06:47:32;102340.6;;;12.3;68.4
72124;BME280;63818;37.134;-8.548;2023-12-22T06:52:23;102353.9;;;12.2;68.3
72124;BME280;63818;37.134;-8.548;2023-12-22T06:57:11;102351.7;;;12.2;68.1
72124;BME280;63818;37.134;-8.548;2023-12-22T07:01:59;102357.1;;;12.2;68.5
72124;BME280;63818;37.134;-8.548;2023-12-22T07:06:49;102353.9;;;12.2;68.5
72124;BME280;63818;37.134;-8.548;2023-12-22T07:11:37;102360.7;;;12.2;68.7
72124;BME280;63818;37.134;-8.548;2023-12-22T07:21:18;102368.7;;;12.2;68.8
72124;BME280;63818;37.134;-8.548;2023-12-22T07:26:06;102368.2;;;12.1;68.4
72124;BME280;63818;37.134;-8.548;2023-12-22T07:30:57;102372.3;;;12.1;68.4
72124;BME280;63818;37.134;-8.548;2023-12-22T07:35:47;102376.3;;;12.1;68.8
72124;BME280;63818;37.134;-8.548;2023-12-22T07:40:35;102373.9;;;12.0;68.8
72124;BME280;63818;37.134;-8.548;2023-12-22T07:45:25;102392.2;;;12.0;69.0
72124;BME280;63818;37.134;-8.548;2023-12-22T07:50:13;102383.1;;;12.0;68.9
72124;BME280;63818;37.134;-8.548;2023-12-22T07:55:01;102380.4;;;12.0;69.2
72124;BME280;63818;37.134;-8.548;2023-12-22T07:59:48;102380.9;;;12.0;69.5
72124;BME280;63818;37.134;-8.548;2023-12-22T08:04:36;102389.0;;;12.0;69.6
72124;BME280;63818;37.134;-8.548;2023-12-22T08:09:24;102398.2;;;12.0;69.8
72124;BME280;63818;37.134;-8.548;2023-12-22T08:14:12;102393.3;;;12.0;69.6
72124;BME280;63818;37.134;-8.548;2023-12-22T08:19:01;102396.3;;;12.0;69.3
72124;BME280;63818;37.134;-8.548;2023-12-22T08:23:48;102395.0;;;12.0;69.2
72124;BME280;63818;37.134;-8.548;2023-12-22T08:28:36;102400.1;;;12.0;69.3
72124;BME280;63818;37.134;-8.548;2023-12-22T08:33:24;102407.0;;;12.0;69.3
72124;BME280;63818;37.134;-8.548;2023-12-22T08:38:15;102410.3;;;12.1;69.5
72124;BME280;63818;37.134;-8.548;2023-12-22T08:43:03;102412.7;;;12.1;69.5
72124;BME280;63818;37.134;-8.548;2023-12-22T08:47:51;102417.0;;;12.1;69.6
72124;BME280;63818;37.134;-8.548;2023-12-22T08:52:39;102421.6;;;12.1;69.6
72124;BME280;63818;37.134;-8.548;2023-12-22T08:57:27;102410.0;;;12.2;69.4
72124;BME280;63818;37.134;-8.548;2023-12-22T09:02:17;102412.4;;;12.2;68.9
72124;BME280;63818;37.134;-8.548;2023-12-22T09:07:05;102418.0;;;12.3;68.3
72124;BME280;63818;37.134;-8.548;2023-12-22T09:11:53;102420.1;;;12.3;67.8
72124;BME280;63818;37.134;-8.548;2023-12-22T09:16:41;102428.2;;;12.4;68.0
72124;BME280;63818;37.134;-8.548;2023-12-22T09:21:36;102431.7;;;12.4;67.5
72124;BME280;63818;37.134;-8.548;2023-12-22T09:26:24;102429.2;;;12.4;67.3
72124;BME280;63818;37.134;-8.548;2023-12-22T09:31:12;102425.7;;;12.5;67.2
72124;BME280;63818;37.134;-8.548;2023-12-22T09:36:02;102428.1;;;12.6;67.0
72124;BME280;63818;37.134;-8.548;2023-12-22T09:40:50;102427.0;;;12.6;67.0
72124;BME280;63818;37.134;-8.548;2023-12-22T09:45:39;102422.7;;;12.7;67.0
72124;BME280;63818;37.134;-8.548;2023-12-22T09:50:28;102430.2;;;12.7;67.2
72124;BME280;63818;37.134;-8.548;2023-12-22T09:55:21;102437.4;;;12.7;67.8
72124;BME280;63818;37.134;-8.548;2023-12-22T10:00:10;102429.3;;;12.8;67.8
72124;BME280;63818;37.134;-8.548;2023-12-22T10:05:01;102446.5;;;12.8;68.0
72124;BME280;63818;37.134;-8.548;2023-12-22T10:09:53;102432.2;;;12.9;68.3
72124;BME280;63818;37.134;-8.548;2023-12-22T10:14:44;102433.8;;;12.9;68.7
72124;BME280;63818;37.134;-8.548;2023-12-22T10:19:33;102429.5;;;12.9;68.6
72124;BME280;63818;37.134;-8.548;2023-12-22T10:24:43;102428.4;;;12.9;68.7
72124;BME280;63818;37.134;-8.548;2023-12-22T10:29:37;102424.3;;;13.0;68.4
72124;BME280;63818;37.134;-8.548;2023-12-22T10:34:25;102428.1;;;13.0;68.4
72124;BME280;63818;37.134;-8.548;2023-12-22T10:39:15;102427.0;;;13.1;68.4
72124;BME280;63818;37.134;-8.548;2023-12-22T10:44:03;102431.8;;;13.1;68.7
72124;BME280;63818;37.134;-8.548;2023-12-22T10:48:56;102429.9;;;13.1;68.8
72124;BME280;63818;37.134;-8.548;2023-12-22T10:53:46;102431.5;;;13.2;68.7
72124;BME280;63818;37.134;-8.548;2023-12-22T10:58:34;102427.2;;;13.2;68.4
72124;BME280;63818;37.134;-8.548;2023-12-22T11:03:26;102422.8;;;13.2;67.9
72124;BME280;63818;37.134;-8.548;2023-12-22T11:08:18;102409.5;;;13.3;67.9
72124;BME280;63818;37.134;-8.548;2023-12-22T11:13:08;102401.6;;;13.4;68.1
72124;BME280;63818;37.134;-8.548;2023-12-22T11:22:56;102402.9;;;13.5;68.2
72124;BME280;63818;37.134;-8.548;2023-12-22T11:27:46;102405.0;;;13.6;68.3
72124;BME280;63818;37.134;-8.548;2023-12-22T11:32:45;102390.8;;;13.6;69.1
72124;BME280;63818;37.134;-8.548;2023-12-22T11:37:37;102393.7;;;13.7;69.4
72124;BME280;63818;37.134;-8.548;2023-12-22T11:42:28;102378.3;;;13.9;69.8
72124;BME280;63818;37.134;-8.548;2023-12-22T11:47:22;102366.9;;;14.0;69.2
72124;BME280;63818;37.134;-8.548;2023-12-22T11:52:28;102357.5;;;14.0;68.1
72124;BME280;63818;37.134;-8.548;2023-12-22T11:57:32;102332.3;;;14.0;65.7
72124;BME280;63818;37.134;-8.548;2023-12-22T12:02:21;102325.3;;;14.1;64.1
72124;BME280;63818;37.134;-8.548;2023-12-22T12:07:39;102322.9;;;14.2;64.3
72124;BME280;63818;37.134;-8.548;2023-12-22T12:12:29;102308.0;;;14.2;64.3
72124;BME280;63818;37.134;-8.548;2023-12-22T12:17:18;102289.5;;;14.4;62.0
72124;BME280;63818;37.134;-8.548;2023-12-22T12:22:06;102279.3;;;14.6;58.7
72124;BME280;63818;37.134;-8.548;2023-12-22T12:26:55;102263.5;;;14.6;58.6
72124;BME280;63818;37.134;-8.548;2023-12-22T12:31:43;102256.7;;;14.8;57.7
72124;BME280;63818;37.134;-8.548;2023-12-22T12:36:31;102234.2;;;14.9;55.6
72124;BME280;63818;37.134;-8.548;2023-12-22T12:41:23;102224.1;;;14.9;51.4
72124;BME280;63818;37.134;-8.548;2023-12-22T12:46:14;102211.6;;;14.9;50.5
72124;BME280;63818;37.134;-8.548;2023-12-22T12:51:08;102225.7;;;14.9;52.4
72124;BME280;63818;37.134;-8.548;2023-12-22T12:56:00;102247.4;;;15.1;61.5
72124;BME280;63818;37.134;-8.548;2023-12-22T13:00:51;102256.7;;;15.1;66.4
72124;BME280;63818;37.134;-8.548;2023-12-22T13:05:45;102246.7;;;15.1;68.5
72124;BME280;63818;37.134;-8.548;2023-12-22T13:10:33;102260.5;;;15.1;70.8
72124;BME280;63818;37.134;-8.548;2023-12-22T13:15:21;102247.2;;;15.1;68.9
72124;BME280;63818;37.134;-8.548;2023-12-22T13:20:12;102229.7;;;15.1;65.9
72124;BME280;63818;37.134;-8.548;2023-12-22T13:25:00;102233.4;;;15.1;65.7
72124;BME280;63818;37.134;-8.548;2023-12-22T13:29:49;102217.5;;;15.2;64.4
72124;BME280;63818;37.134;-8.548;2023-12-22T13:34:40;102226.7;;;15.2;66.6
72124;BME280;63818;37.134;-8.548;2023-12-22T13:39:32;102224.9;;;15.3;69.2
72124;BME280;63818;37.134;-8.548;2023-12-22T13:44:21;102225.6;;;15.4;70.7
72124;BME280;63818;37.134;-8.548;2023-12-22T13:49:09;102226.3;;;15.4;70.6
72124;BME280;63818;37.134;-8.548;2023-12-22T13:53:58;102202.1;;;15.5;64.2
72124;BME280;63818;37.134;-8.548;2023-12-22T13:58:47;102200.4;;;15.5;63.8
72124;BME280;63818;37.134;-8.548;2023-12-22T14:03:35;102184.6;;;15.8;60.6
72124;BME280;63818;37.134;-8.548;2023-12-22T14:08:23;102179.4;;;16.1;60.7
72124;BME280;63818;37.134;-8.548;2023-12-22T14:13:13;102170.5;;;16.2;59.2
72124;BME280;63818;37.134;-8.548;2023-12-22T14:18:01;102164.2;;;16.5;58.4
72124;BME280;63818;37.134;-8.548;2023-12-22T14:22:49;102184.3;;;16.8;61.7
72124;BME280;63818;37.134;-8.548;2023-12-22T14:27:45;102179.8;;;17.2;63.9
72124;BME280;63818;37.134;-8.548;2023-12-22T14:32:33;102168.4;;;17.9;61.1
72124;BME280;63818;37.134;-8.548;2023-12-22T14:37:29;102160.6;;;18.9;59.0
72124;BME280;63818;37.134;-8.548;2023-12-22T14:42:18;102147.6;;;20.0;54.9
72124;BME280;63818;37.134;-8.548;2023-12-22T14:47:06;102141.2;;;21.0;51.7
72124;BME280;63818;37.134;-8.548;2023-12-22T14:51:54;102127.4;;;21.7;48.9
72124;BME280;63818;37.134;-8.548;2023-12-22T14:56:45;102112.2;;;22.1;47.7
72124;BME280;63818;37.134;-8.548;2023-12-22T15:01:38;102101.7;;;22.4;46.0
72124;BME280;63818;37.134;-8.548;2023-12-22T15:06:28;102102.0;;;22.7;45.9
72124;BME280;63818;37.134;-8.548;2023-12-22T15:11:16;102094.6;;;22.9;44.7
72124;BME280;63818;37.134;-8.548;2023-12-22T15:16:06;102101.0;;;23.0;45.5
72124;BME280;63818;37.134;-8.548;2023-12-22T15:20:54;102103.7;;;22.8;45.7
72124;BME280;63818;37.134;-8.548;2023-12-22T15:25:44;102110.3;;;22.1;47.0
72124;BME280;63818;37.134;-8.548;2023-12-22T15:30:34;102110.1;;;21.5;48.6
72124;BME280;63818;37.134;-8.548;2023-12-22T15:35:22;102115.0;;;20.8;50.6
72124;BME280;63818;37.134;-8.548;2023-12-22T15:40:10;102113.8;;;20.2;52.5
72124;BME280;63818;37.134;-8.548;2023-12-22T15:45:00;102119.9;;;19.8;54.0
72124;BME280;63818;37.134;-8.548;2023-12-22T15:49:50;102112.1;;;19.5;54.1
72124;BME280;63818;37.134;-8.548;2023-12-22T15:54:40;102125.7;;;19.3;55.0
72124;BME280;63818;37.134;-8.548;2023-12-22T15:59:30;102122.2;;;19.1;55.6
72124;BME280;63818;37.134;-8.548;2023-12-22T16:04:18;102115.9;;;18.9;56.2
72124;BME280;63818;37.134;-8.548;2023-12-22T16:09:06;102116.9;;;18.5;56.9
72124;BME280;63818;37.134;-8.548;2023-12-22T16:13:56;102116.2;;;18.1;57.7
72124;BME280;63818;37.134;-8.548;2023-12-22T16:18:44;102122.3;;;17.9;59.2
72124;BME280;63818;37.134;-8.548;2023-12-22T16:23:32;102099.9;;;17.7;57.2
72124;BME280;63818;37.134;-8.548;2023-12-22T16:28:22;102100.4;;;17.5;57.7
72124;BME280;63818;37.134;-8.548;2023-12-22T16:33:10;102108.0;;;17.4;59.3
72124;BME280;63818;37.134;-8.548;2023-12-22T16:37:59;102109.8;;;17.3;60.8
72124;BME280;63818;37.134;-8.548;2023-12-22T16:42:49;102116.3;;;17.2;61.9
72124;BME280;63818;37.134;-8.548;2023-12-22T16:47:39;102118.6;;;17.1;62.8
72124;BME280;63818;37.134;-8.548;2023-12-22T16:52:29;102115.3;;;17.0;64.1
72124;BME280;63818;37.134;-8.548;2023-12-22T16:57:17;102125.7;;;16.9;64.5
72124;BME280;63818;37.134;-8.548;2023-12-22T17:02:05;102131.6;;;16.8;65.6
72124;BME280;63818;37.134;-8.548;2023-12-22T17:06:56;102128.2;;;16.8;66.4
72124;BME280;63818;37.134;-8.548;2023-12-22T17:11:44;102134.9;;;16.7;67.2
72124;BME280;63818;37.134;-8.548;2023-12-22T17:16:32;102140.5;;;16.6;67.5
72124;BME280;63818;37.134;-8.548;2023-12-22T17:21:20;102139.8;;;16.6;67.5
72124;BME280;63818;37.134;-8.548;2023-12-22T17:26:08;102143.7;;;16.5;67.1
72124;BME280;63818;37.134;-8.548;2023-12-22T17:30:58;102145.8;;;16.5;67.1
72124;BME280;63818;37.134;-8.548;2023-12-22T17:35:49;102148.3;;;16.4;67.5
72124;BME280;63818;37.134;-8.548;2023-12-22T17:40:37;102141.9;;;16.4;67.7
72124;BME280;63818;37.134;-8.548;2023-12-22T17:45:27;102137.4;;;16.4;68.2
72124;BME280;63818;37.134;-8.548;2023-12-22T17:50:15;102138.4;;;16.3;68.4
72124;BME280;63818;37.134;-8.548;2023-12-22T17:55:03;102152.9;;;16.3;68.7
72124;BME280;63818;37.134;-8.548;2023-12-22T17:59:51;102151.4;;;16.2;68.7
72124;BME280;63818;37.134;-8.548;2023-12-22T18:04:39;102147.7;;;16.2;68.8
72124;BME280;63818;37.134;-8.548;2023-12-22T18:09:27;102149.9;;;16.1;68.7
72124;BME280;63818;37.134;-8.548;2023-12-22T18:14:15;102151.3;;;16.1;68.5
72124;BME280;63818;37.134;-8.548;2023-12-22T18:19:03;102143.3;;;16.1;68.6
72124;BME280;63818;37.134;-8.548;2023-12-22T18:23:51;102161.0;;;16.0;68.7
72124;BME280;63818;37.134;-8.548;2023-12-22T18:28:39;102152.2;;;16.0;69.0
72124;BME280;63818;37.134;-8.548;2023-12-22T18:33:27;102160.9;;;15.9;69.1
72124;BME280;63818;37.134;-8.548;2023-12-22T18:38:18;102163.8;;;15.9;69.1
72124;BME280;63818;37.134;-8.548;2023-12-22T18:43:07;102171.7;;;15.9;69.7
72124;BME280;63818;37.134;-8.548;2023-12-22T18:47:55;102179.4;;;15.8;69.8
72124;BME280;63818;37.134;-8.548;2023-12-22T18:57:38;102161.1;;;15.8;69.5
72124;BME280;63818;37.134;-8.548;2023-12-22T19:02:29;102174.2;;;15.7;69.5
72124;BME280;63818;37.134;-8.548;2023-12-22T19:07:17;102166.4;;;15.7;69.4
72124;BME280;63818;37.134;-8.548;2023-12-22T19:12:08;102171.1;;;15.7;69.2
72124;BME280;63818;37.134;-8.548;2023-12-22T19:16:56;102169.6;;;15.6;69.6
72124;BME280;63818;37.134;-8.548;2023-12-22T19:21:46;102161.6;;;15.6;69.5
72124;BME280;63818;37.134;-8.548;2023-12-22T19:26:33;102155.2;;;15.5;69.4
72124;BME280;63818;37.134;-8.548;2023-12-22T19:31:21;102162.7;;;15.4;70.2
72124;BME280;63818;37.134;-8.548;2023-12-22T19:36:17;102186.5;;;15.4;70.7
72124;BME280;63818;37.134;-8.548;2023-12-22T19:41:05;102172.6;;;15.3;70.9
72124;BME280;63818;37.134;-8.548;2023-12-22T19:46:05;102171.1;;;15.3;70.8
72124;BME280;63818;37.134;-8.548;2023-12-22T19:50:53;102169.1;;;15.2;70.8
72124;BME280;63818;37.134;-8.548;2023-12-22T19:55:40;102177.0;;;15.1;70.8
72124;BME280;63818;37.134;-8.548;2023-12-22T20:00:29;102176.1;;;15.1;71.1
72124;BME280;63818;37.134;-8.548;2023-12-22T20:10:09;102167.8;;;15.1;70.2
72124;BME280;63818;37.134;-8.548;2023-12-22T20:14:57;102158.6;;;15.0;70.0
72124;BME280;63818;37.134;-8.548;2023-12-22T20:19:46;102167.9;;;15.0;70.5
72124;BME280;63818;37.134;-8.548;2023-12-22T20:24:36;102175.1;;;14.9;70.9
72124;BME280;63818;37.134;-8.548;2023-12-22T20:29:25;102177.6;;;14.9;71.0
72124;BME280;63818;37.134;-8.548;2023-12-22T20:34:13;102178.5;;;14.9;71.4
72124;BME280;63818;37.134;-8.548;2023-12-22T20:43:56;102190.2;;;14.8;72.2
72124;BME280;63818;37.134;-8.548;2023-12-22T20:48:44;102192.3;;;14.7;72.8
72124;BME280;63818;37.134;-8.548;2023-12-22T20:53:32;102184.5;;;14.6;73.4
72124;BME280;63818;37.134;-8.548;2023-12-22T20:58:20;102192.5;;;14.6;73.4
72124;BME280;63818;37.134;-8.548;2023-12-22T21:03:08;102184.9;;;14.6;73.6
72124;BME280;63818;37.134;-8.548;2023-12-22T21:07:56;102176.0;;;14.6;73.4
72124;BME280;63818;37.134;-8.548;2023-12-22T21:12:43;102166.9;;;14.5;73.0
72124;BME280;63818;37.134;-8.548;2023-12-22T21:17:32;102165.1;;;14.5;72.7
72124;BME280;63818;37.134;-8.548;2023-12-22T21:22:19;102166.0;;;14.4;72.5
72124;BME280;63818;37.134;-8.548;2023-12-22T21:32:00;102160.3;;;14.4;71.3
72124;BME280;63818;37.134;-8.548;2023-12-22T21:36:53;102160.1;;;14.4;71.1
72124;BME280;63818;37.134;-8.548;2023-12-22T21:41:41;102171.2;;;14.4;70.9
72124;BME280;63818;37.134;-8.548;2023-12-22T21:46:29;102179.8;;;14.4;70.6
72124;BME280;63818;37.134;-8.548;2023-12-22T21:51:22;102176.3;;;14.4;70.4
72124;BME280;63818;37.134;-8.548;2023-12-22T21:56:22;102181.8;;;14.4;69.9
72124;BME280;63818;37.134;-8.548;2023-12-22T22:01:10;102178.2;;;14.2;70.0
72124;BME280;63818;37.134;-8.548;2023-12-22T22:05:58;102192.0;;;14.2;70.4
72124;BME280;63818;37.134;-8.548;2023-12-22T22:10:46;102189.7;;;14.1;70.0
72124;BME280;63818;37.134;-8.548;2023-12-22T22:15:34;102189.2;;;14.1;70.6
72124;BME280;63818;37.134;-8.548;2023-12-22T22:20:22;102183.6;;;14.0;71.1
72124;BME280;63818;37.134;-8.548;2023-12-22T22:25:13;102186.4;;;14.0;72.1
72124;BME280;63818;37.134;-8.548;2023-12-22T22:30:01;102187.3;;;13.9;72.7
72124;BME280;63818;37.134;-8.548;2023-12-22T22:34:51;102185.4;;;13.9;72.8
72124;BME280;63818;37.134;-8.548;2023-12-22T22:39:44;102188.7;;;13.9;73.3
72124;BME280;63818;37.134;-8.548;2023-12-22T22:44:32;102182.9;;;13.8;73.2
72124;BME280;63818;37.134;-8.548;2023-12-22T22:49:22;102182.9;;;13.8;72.9
72124;BME280;63818;37.134;-8.548;2023-12-22T22:54:10;102177.5;;;13.8;72.5
72124;BME280;63818;37.134;-8.548;2023-12-22T22:58:58;102177.0;;;13.8;70.9
72124;BME280;63818;37.134;-8.548;2023-12-22T23:03:46;102166.2;;;13.8;69.6
72124;BME280;63818;37.134;-8.548;2023-12-22T23:08:34;102171.7;;;13.7;69.6
72124;BME280;63818;37.134;-8.548;2023-12-22T23:13:22;102173.9;;;13.7;69.2
72124;BME280;63818;37.134;-8.548;2023-12-22T23:18:10;102176.4;;;13.7;68.4
72124;BME280;63818;37.134;-8.548;2023-12-22T23:22:58;102164.8;;;13.6;68.5
72124;BME280;63818;37.134;-8.548;2023-12-22T23:27:46;102166.4;;;13.7;67.7
72124;BME280;63818;37.134;-8.548;2023-12-22T23:32:38;102165.3;;;13.6;67.4
72124;BME280;63818;37.134;-8.548;2023-12-22T23:37:28;102156.7;;;13.6;67.4
72124;BME280;63818;37.134;-8.548;2023-12-22T23:42:18;102146.8;;;13.6;67.6
72124;BME280;63818;37.134;-8.548;2023-12-22T23:47:06;102143.3;;;13.6;67.7
72124;BME280;63818;37.134;-8.548;2023-12-22T23:51:56;102141.2;;;13.5;67.9
72124;BME280;63818;37.134;-8.548;2023-12-22T23:56:44;102133.9;;;13.5;68.0
